Latest Weather Observations for Double Island Point

IDQ60801

Issued at 3:32 pm EST Sunday 14 February 2016 (issued every 30 minutes, with the page automatically refreshed every 10 minutes)

About weather observations | Map of weather stations | Latest weather observations for QLD | Other Formats
Station Details ID: 040068 Name: DOUBLE ISLAND POINT LIGHTHOUSE Lat: -25.93 Lon: 153.19 Height: 95.64 m
Data from the previous 72 hours. | See also: Recent months at Double Island Point
Date/Time
EST
Temp
°C
App
Temp
°C
Dew
Point
Rel
Hum
%
Delta-T
°C
Wind Press
QNH
hPa
Press
MSL
hPa
Rain
since 9 am
mm
Dir
 
Spd
km/h
Gust
km/h
Spd
kts
Gust
kts
14/03:30pm 25.3 21.0 20.8 76 3.0 SSE 44 56 24 30 1006.7 1006.2 0.0
14/03:00pm 25.5 21.4 20.7 75 3.2 SSE 43 52 23 28 1006.7 1006.2 0.0
14/02:30pm 25.5 21.3 20.5 74 3.3 SSE 43 54 23 29 1006.6 1006.0 0.0
14/02:00pm 25.3 21.8 20.5 75 3.2 SSE 39 54 21 29 1006.6 1006.0 0.0
14/01:30pm 24.2 20.9 20.9 82 2.2 SSE 39 50 21 27 1006.8 1006.3 0.0
14/01:00pm 24.5 19.8 20.6 79 2.6 SSE 46 61 25 33 1006.7 1006.2 0.0
14/12:30pm 24.4 19.8 20.1 77 2.8 S 44 54 24 29 1006.8 1006.3 0.0
14/12:00pm 25.1 20.1 20.1 74 3.3 SSE 46 61 25 33 1006.8 1006.3 0.0
14/11:30am 24.9 19.1 19.9 74 3.2 SSE 50 61 27 33 1007.1 1006.6 0.0
14/11:00am 24.4 18.5 19.7 75 3.0 SSE 50 65 27 35 1007.1 1006.6 0.0
14/10:30am 24.6 18.5 19.4 73 3.3 S 50 59 27 32 1007.3 1006.8 0.0
14/10:00am 24.0 17.8 19.1 74 3.1 SSE 50 63 27 34 1007.4 1006.9 0.0
14/09:30am 24.0 17.7 18.9 73 3.3 SSE 50 63 27 34 1007.3 1006.8 0.0
14/09:00am 23.7 17.2 19.2 76 2.9 SSE 52 67 28 36 1007.5 1007.0 10.0
14/08:30am 23.7 17.2 19.2 76 2.9 SSE 52 65 28 35 1007.3 1006.8 10.0
14/08:02am 23.4 16.5 19.3 78 2.6 SSE 54 72 29 39 1007.0 1006.5 10.0
14/08:00am 23.4 16.5 19.3 78 2.6 SSE 54 67 29 36 1007.0 1006.5 10.0
14/07:30am 22.9 15.9 19.1 79 2.4 SSE 54 69 29 37 1006.9 1006.4 10.0
14/07:00am 22.8 15.9 19.2 80 2.3 SSE 54 65 29 35 1006.7 1006.2 10.0
14/06:30am 23.0 15.9 19.6 81 2.2 SSE 56 69 30 37 1006.3 1005.7 10.0
14/06:00am 22.9 16.3 19.9 83 1.9 SSE 54 65 29 35 1006.3 1005.7 10.0
14/05:30am 22.7 17.2 19.7 83 1.9 SSE 48 61 26 33 1006.2 1005.6 10.0
14/05:00am 22.9 15.9 19.9 83 1.9 SSE 56 67 30 36 1005.9 1005.3 10.0
14/04:30am 22.6 17.1 19.8 84 1.8 SSE 48 63 26 34 1005.9 1005.3 10.0
14/04:00am 22.2 16.2 19.6 85 1.7 S 50 61 27 33 1005.9 1005.3 10.0
14/03:30am 22.6 16.8 19.9 85 1.7 S 50 59 27 32 1005.9 1005.3 10.0
14/03:00am 21.7 16.3 19.3 86 1.5 S 46 61 25 33 1006.2 1005.6 10.0
14/02:30am 22.2 17.4 19.6 85 1.7 S 44 57 24 31 1006.5 1005.9 10.0
14/02:17am 22.4 17.7 19.8 85 1.7 SSE 44 63 24 34 1006.5 1005.9 10.0
14/02:00am 23.0 16.5 20.1 84 1.9 SSE 54 63 29 34 1006.4 1005.8 10.0
14/01:30am 22.1 15.2 20.0 88 1.4 SSE 56 69 30 37 1006.7 1006.2 10.0
14/01:05am 22.6 17.0 18.8 79 2.4 SSE 46 72 25 39 1006.9 1006.4 9.4
14/01:00am 23.8 19.2 20.1 80 2.4 SSE 44 54 24 29 1007.1 1006.6 9.4
14/12:30am 23.0 17.1 19.8 82 2.1 SSE 50 59 27 32 1007.3 1006.8 9.4
14/12:00am 21.7 12.8 18.5 82 2.0 SE 63 76 34 41 1007.7 1007.2 9.4
 
Date/Time
EST
Temp
°C
App
Temp
°C
Dew
Point
Rel
Hum
%
Delta-T
°C
Wind Press
QNH
hPa
Press
MSL
hPa
Rain
since 9 am
mm
Dir
 
Spd
km/h
Gust
km/h
Spd
kts
Gust
kts
13/11:53pm 23.8 16.3 19.1 75 3.0 SSE 57 76 31 41 1007.7 1007.2 9.4
13/11:30pm 23.3 15.4 19.2 78 2.6 SE 59 69 32 37 1008.1 1007.6 9.4
13/11:00pm 24.2 16.0 18.4 70 3.7 SSE 59 70 32 38 1007.9 1007.4 9.4
13/10:30pm 24.2 15.6 18.4 70 3.7 SSE 61 74 33 40 1008.1 1007.6 9.4
13/10:00pm 24.1 15.2 18.7 72 3.4 SSE 63 72 34 39 1008.3 1007.8 9.4
13/09:30pm 24.1 16.2 19.2 74 3.1 SSE 59 76 32 41 1008.5 1008.0 9.4
13/09:00pm 24.3 15.9 18.9 72 3.5 SSE 61 76 33 41 1008.4 1007.9 9.4
13/08:30pm 24.2 15.8 18.8 72 3.4 SSE 61 70 33 38 1008.4 1007.9 9.4
13/08:00pm 24.2 15.4 18.8 72 3.4 SSE 63 76 34 41 1008.3 1007.8 9.4
13/07:30pm 24.1 14.7 19.2 74 3.1 SSE 67 80 36 43 1008.1 1007.6 9.4
13/07:00pm 24.1 15.5 20.0 78 2.7 SSE 65 76 35 41 1008.0 1007.5 9.4
13/06:30pm 24.0 16.6 20.1 79 2.5 SSE 59 72 32 39 1007.5 1007.0 9.4
13/06:00pm 23.9 16.7 20.6 82 2.2 SSE 59 72 32 39 1007.4 1006.9 9.4
13/05:30pm 23.6 16.2 20.9 85 1.8 SSE 61 76 33 41 1007.3 1006.8 9.4
13/05:26pm 23.5 17.0 21.2 87 1.5 SSE 57 76 31 41 1007.2 1006.7 9.4
13/05:00pm 22.3 15.5 20.6 90 1.1 SSE 57 69 31 37 1007.1 1006.6 9.4
13/04:58pm 22.3 15.7 20.6 90 1.1 SSE 56 69 30 37 1007.2 1006.7 9.4
13/04:30pm 21.4 16.8 20.0 92 0.9 SSE 44 63 24 34 1007.3 1006.8 9.0
13/04:29pm 21.4 16.9 20.0 92 0.9 SSE 43 63 23 34 1007.5 1007.0 9.0
13/04:25pm 21.3 17.2 19.9 92 0.9 SSE 41 57 22 31 1007.8 1007.3 9.0
13/04:00pm 21.4 14.6 20.2 93 0.8 SSE 56 67 30 36 1007.5 1007.0 7.8
13/03:30pm 21.8 14.5 20.4 92 0.9 SE 59 78 32 42 1007.4 1006.9 6.8
13/03:02pm 21.9 15.0 20.5 92 0.9 SE 57 76 31 41 1007.4 1006.9 5.4
13/03:00pm 21.9 15.2 20.5 92 0.9 SSE 56 65 30 35 1007.6 1007.1 5.4
13/02:30pm 21.2 12.4 19.7 91 1.0 SE 65 78 35 42 1007.5 1007.0 4.6
13/02:19pm 21.1 11.9 19.6 91 1.0 SE 67 78 36 42 1007.1 1006.6 4.6
13/02:00pm 21.6 14.9 19.7 89 1.2 SSE 54 72 29 39 1007.4 1006.9 2.6
13/01:57pm 21.6 14.9 19.7 89 1.2 SSE 54 72 29 39 1007.4 1006.9 2.6
13/01:30pm 22.0 15.6 20.3 90 1.1 SE 54 69 29 37 1007.9 1007.4 2.4
13/01:00pm 21.3 14.6 19.6 90 1.1 SE 54 63 29 34 1008.0 1007.5 2.2
13/12:48pm 21.5 14.9 19.8 90 1.1 ESE 54 65 29 35 1007.9 1007.4 2.0
13/12:30pm 21.6 12.1 19.7 89 1.2 ESE 69 87 37 47 1007.7 1007.2 1.6
13/12:17pm 22.3 16.3 19.5 84 1.8 SSE 50 76 27 41 1008.3 1007.8 1.6
13/12:16pm 23.4 18.5 21.1 87 1.5 SSE 48 57 26 31 1008.5 1008.0 1.6
13/12:00pm 23.8 18.6 21.1 85 1.8 SSE 50 59 27 32 1008.1 1007.6 1.6
13/11:30am 23.3 17.6 21.0 87 1.5 SSE 52 61 28 33 1008.7 1008.2 1.6
13/11:00am 22.7 17.0 21.0 90 1.1 SSE 52 61 28 33 1009.0 1008.5 1.6
13/10:30am 22.7 15.9 20.6 88 1.4 SSE 57 72 31 39 1008.7 1008.2 0.8
13/10:21am 22.2 16.5 20.1 88 1.4 S 50 70 27 38 1008.7 1008.2 0.8
13/10:00am 22.4 16.3 20.1 87 1.5 SSE 52 65 28 35 1009.0 1008.5 0.6
13/09:30am 22.2 15.7 20.1 88 1.4 S 54 67 29 36 1008.8 1008.3 0.2
13/09:00am 22.8 17.5 20.3 86 1.6 S 48 61 26 33 1009.2 1008.7 1.4
13/08:36am 22.7 16.2 20.0 85 1.7 SSE 54 72 29 39 1009.4 1008.9 1.4
13/08:30am 23.4 15.8 20.5 84 1.9 SSE 61 74 33 40 1009.2 1008.7 1.4
13/08:00am 22.9 16.6 20.6 87 1.5 SSE 54 65 29 35 1009.0 1008.5 1.4
13/07:41am 22.6 15.9 20.9 90 1.1 SSE 57 76 31 41 1009.1 1008.6 1.4
13/07:30am 23.1 15.9 20.6 86 1.6 SSE 59 72 32 39 1008.8 1008.3 1.4
13/07:00am 21.2 13.6 18.9 87 1.5 SSE 57 82 31 44 1008.6 1008.1 0.6
13/06:58am 21.6 14.6 19.0 85 1.6 SSE 54 78 29 42 1009.0 1008.5 0.6
13/06:30am 22.5 14.8 20.4 88 1.4 SSE 61 78 33 42 1008.9 1008.4 0.2
13/06:13am 22.6 15.5 19.6 83 1.9 SSE 56 76 30 41 1008.1 1007.6 0.2
13/06:00am 22.7 15.9 20.2 86 1.6 SSE 56 69 30 37 1008.4 1007.9 0.2
13/05:31am 23.7 15.3 18.8 74 3.1 SSE 61 80 33 43 1007.4 1006.9 0.2
13/05:30am 23.7 15.5 19.2 76 2.9 SSE 61 78 33 42 1007.6 1007.1 0.2
13/05:20am 23.1 15.1 19.7 81 2.2 SSE 61 80 33 43 1007.6 1007.1 0.2
13/05:00am 23.8 15.4 18.9 74 3.1 SSE 61 76 33 41 1007.3 1006.8 0.2
13/04:30am 24.1 14.8 19.4 75 3.0 SSE 67 80 36 43 1007.4 1006.9 0.2
13/04:14am 23.7 16.3 19.4 77 2.8 SSE 57 76 31 41 1007.3 1006.8 0.2
13/04:00am 23.5 15.9 19.8 80 2.4 SSE 59 72 32 39 1007.3 1006.8 0.2
13/03:30am 23.9 14.8 19.0 74 3.1 SSE 65 80 35 43 1007.1 1006.6 0.2
13/03:00am 23.7 15.1 19.2 76 2.9 SSE 63 76 34 41 1007.6 1007.1 0.2
13/02:30am 23.6 15.1 19.5 78 2.6 SSE 63 72 34 39 1007.8 1007.3 0.2
13/02:08am 22.7 16.4 20.4 87 1.5 SSE 54 72 29 39 1008.0 1007.5 0.2
13/02:00am 21.8 13.8 19.7 88 1.3 SSE 61 74 33 40 1007.9 1007.4 0.2
13/01:30am 24.2 16.1 18.6 71 3.6 SSE 59 72 32 39 1008.2 1007.7 0.0
13/01:00am 24.2 17.1 18.8 72 3.4 SSE 54 67 29 36 1008.7 1008.2 0.0
13/12:30am 24.3 16.7 18.5 70 3.7 SSE 56 65 30 35 1009.4 1008.9 0.0
13/12:00am 24.3 16.4 18.2 68 3.9 SSE 57 69 31 37 1009.6 1009.1 0.0
 
Date/Time
EST
Temp
°C
App
Temp
°C
Dew
Point
Rel
Hum
%
Delta-T
°C
Wind Press
QNH
hPa
Press
MSL
hPa
Rain
since 9 am
mm
Dir
 
Spd
km/h
Gust
km/h
Spd
kts
Gust
kts
12/11:30pm 24.3 15.5 18.9 72 3.4 SSE 63 72 34 39 1009.7 1009.2 0.0
12/11:00pm 24.4 16.9 19.2 73 3.3 SSE 57 67 31 36 1010.1 1009.6 0.0
12/10:30pm 24.4 16.4 19.0 72 3.5 SSE 59 67 32 36 1010.3 1009.8 0.0
12/10:00pm 24.5 17.2 19.1 72 3.5 SSE 56 65 30 35 1010.9 1010.4 0.0
12/09:30pm 24.4 16.7 18.8 71 3.6 SSE 57 67 31 36 1011.0 1010.5 0.0
12/09:00pm 24.5 18.1 19.6 74 3.2 SE 52 63 28 34 1011.6 1011.1 0.0
12/08:30pm 24.4 17.3 18.8 71 3.6 SSE 54 63 29 34 1011.3 1010.8 0.0
12/08:00pm 24.4 17.2 19.5 74 3.2 SSE 56 65 30 35 1011.1 1010.6 0.0
12/07:30pm 24.3 18.4 18.9 72 3.4 SSE 48 59 26 32 1011.2 1010.7 0.0
12/07:00pm 24.3 16.7 18.9 72 3.4 SSE 57 65 31 35 1011.0 1010.5 0.0
12/06:30pm 24.4 17.3 19.7 75 3.0 SSE 56 65 30 35 1010.8 1010.3 0.0
12/06:00pm 24.5 17.4 19.6 74 3.2 SE 56 63 30 34 1010.4 1009.9 0.0
12/05:30pm 24.8 17.2 19.0 70 3.7 SE 57 69 31 37 1010.0 1009.5 0.0
12/05:00pm 25.0 17.8 19.8 73 3.4 SE 57 67 31 36 1010.0 1009.5 0.0
12/04:30pm 25.0 17.6 19.4 71 3.6 SE 57 67 31 36 1010.1 1009.6 0.0
12/04:00pm 25.5 18.8 19.6 70 3.8 SSE 54 67 29 36 1009.9 1009.4 0.0
12/03:30pm 25.4 19.0 19.5 70 3.8 SSE 52 59 28 32 1009.9 1009.4 0.0
12/03:00pm 25.4 18.1 19.3 69 3.9 SE 56 61 30 33 1010.1 1009.6 0.0
12/02:30pm 25.7 19.2 19.3 67 4.1 SE 52 61 28 33 1010.2 1009.7 0.0
12/02:00pm 25.6 19.5 19.3 68 4.1 SE 50 57 27 31 1010.5 1010.0 0.0
12/01:30pm 25.6 18.4 18.5 65 4.5 SE 54 61 29 33 1010.4 1009.9 0.0
12/01:00pm 26.3 19.6 18.9 63 4.8 SE 52 59 28 32 1010.5 1010.0 0.0
12/12:30pm 26.7 19.4 19.3 64 4.8 SE 56 61 30 33 1010.6 1010.1 0.0
12/12:00pm 26.1 19.2 19.2 65 4.5 SE 54 59 29 32 1010.9 1010.4 0.0
12/11:30am 26.0 18.5 19.2 66 4.4 SE 57 63 31 34 1010.8 1010.3 0.0
12/11:00am 26.8 21.5 20.2 67 4.3 SE 48 57 26 31 1011.2 1010.7 0.0
12/10:30am 26.0 20.6 19.2 66 4.4 SE 46 52 25 28 1011.4 1010.9 0.0
12/10:00am 26.3 20.5 19.2 65 4.6 SE 48 54 26 29 1011.7 1011.2 0.0
12/09:30am 26.0 19.9 19.4 67 4.3 SE 50 54 27 29 1011.7 1011.2 0.0
12/09:00am 25.6 19.4 19.0 67 4.2 SE 50 56 27 30 1011.6 1011.1 0.2
12/08:30am 25.0 18.2 18.7 68 4.0 SE 52 57 28 31 1011.5 1011.0 0.2
12/08:00am 25.4 18.8 19.1 68 4.1 SE 52 57 28 31 1011.4 1010.9 0.2
12/07:30am 24.9 18.6 18.8 69 3.9 SE 50 56 27 30 1011.4 1010.9 0.2
12/07:00am 24.5 18.1 18.7 70 3.7 SE 50 54 27 29 1011.4 1010.9 0.2
12/06:30am 24.6 18.0 18.1 67 4.1 SE 50 56 27 30 1011.3 1010.8 0.2
12/06:00am 24.1 17.5 19.0 73 3.3 SE 52 59 28 32 1010.8 1010.3 0.2
12/05:30am 23.9 17.7 19.2 75 3.0 SE 50 56 27 30 1010.7 1010.2 0.2
12/05:00am 23.9 18.0 19.0 74 3.1 SE 48 54 26 29 1010.5 1010.0 0.2
12/04:30am 23.9 18.3 18.8 73 3.2 SE 46 54 25 29 1010.4 1009.9 0.2
12/04:00am 23.9 18.4 19.0 74 3.1 SE 46 56 25 30 1010.3 1009.8 0.2
12/03:30am 24.0 18.0 18.6 72 3.4 SE 48 52 26 28 1010.4 1009.9 0.2
12/03:00am 24.0 18.3 18.6 72 3.4 SE 46 52 25 28 1010.4 1009.9 0.2
12/02:30am 24.0 18.6 19.1 74 3.1 SE 46 54 25 29 1010.6 1010.1 0.2
12/02:00am 24.0 17.8 19.1 74 3.1 SE 50 56 27 30 1010.6 1010.1 0.2
12/01:30am 24.1 17.7 18.7 72 3.4 SE 50 56 27 30 1010.6 1010.1 0.2
12/01:00am 24.1 18.4 18.5 71 3.6 SE 46 56 25 30 1011.0 1010.5 0.2
12/12:30am 24.1 19.0 19.0 73 3.3 SE 44 56 24 30 1011.1 1010.6 0.2
12/12:00am 24.1 18.0 18.5 71 3.6 SE 48 54 26 29 1011.1 1010.6 0.2
 
Date/Time
EST
Temp
°C
App
Temp
°C
Dew
Point
Rel
Hum
%
Delta-T
°C
Wind Press
QNH
hPa
Press
MSL
hPa
Rain
since 9 am
mm
Dir
 
Spd
km/h
Gust
km/h
Spd
kts
Gust
kts
11/11:30pm 24.2 17.8 18.6 71 3.6 SE 50 57 27 31 1011.4 1010.9 0.2
11/11:00pm 24.3 18.5 19.1 73 3.3 SE 48 57 26 31 1011.5 1011.0 0.2
11/10:30pm 24.4 18.2 19.2 73 3.3 SE 50 57 27 31 1011.5 1011.0 0.2
11/10:00pm 24.3 18.3 19.6 75 3.0 SE 50 57 27 31 1011.7 1011.2 0.2
11/09:30pm 24.3 18.6 19.4 74 3.2 SE 48 57 26 31 1011.9 1011.4 0.2
11/09:00pm 24.4 17.8 18.3 69 3.9 SE 50 57 27 31 1012.0 1011.5 0.2
11/08:30pm 24.5 17.6 18.4 69 3.9 SE 52 57 28 31 1011.8 1011.3 0.2
11/08:00pm 24.5 18.7 19.1 72 3.5 ESE 48 59 26 32 1011.7 1011.2 0.2
11/07:30pm 24.5 18.7 19.1 72 3.5 SE 48 57 26 31 1011.7 1011.2 0.2
11/07:00pm 24.5 18.6 18.9 71 3.6 SE 48 59 26 32 1011.3 1010.8 0.2
11/06:30pm 24.5 18.8 19.3 73 3.3 SE 48 56 26 30 1011.0 1010.5 0.2
11/06:00pm 24.5 18.5 18.7 70 3.7 SE 48 57 26 31 1010.8 1010.3 0.2
11/05:30pm 24.6 18.3 18.8 70 3.7 SE 50 56 27 30 1010.6 1010.1 0.2
11/05:00pm 25.0 19.3 19.4 71 3.6 SE 48 54 26 29 1010.5 1010.0 0.2
11/04:30pm 24.6 20.2 20.1 76 2.9 SSE 43 54 23 29 1010.2 1009.7 0.2
11/04:00pm 24.8 20.2 20.1 75 3.1 SSE 44 56 24 30 1010.1 1009.6 0.2

Other Formats:

Comma delimited format used in spreadsheet applications
http://www.bom.gov.au/fwo/IDQ60801/IDQ60801.94584.axf

JavaScript Object Notation format (JSON) in row-major order
http://www.bom.gov.au/fwo/IDQ60801/IDQ60801.94584.json